Manley, Nebraska
Current Conditions -  °F | °C
As of 1:35 PM on Saturday 20 Dec 2014 (Local Time) from KPMV Reporting Station
Haze Haze  
Wind Chill: 28°   Ceiling: 400
Heat Index: 33°   Visibility: 2mi
Dew Point: 32°   Wind: 5mph
Humidity: 96%   Direction: 140°SE
Pressure: 30.06"   Gusts: NA
Location:  40.92°N, 96.17°W
Report Text: KPMV 201935Z AUTO 14004KT 2SM BR OVC004 00/00 A3006 RMK AO2 T00031002
Loading
Personal Weather Stations






























Interactive Weather Map New forecast layout! Learn more

10-Day Weather Forecast

Advertisements
Track Severe Weather on mobile